KCMX/CMX METAR and TAF weather

Enter ICAO airport designator
Station Type Date Time Source
KCMX METAR 2020/03/31 21:53 UTC NOAA

KCMX 312153Z AUTO 12004KT 9SM OVC022 01/M02 A3013 RMK AO2 SNB36E46 SLP216 P0000 T00111022 $


Station Type Date Time Source
KCMX Decoded METAR 2020/03/31 21:53 UTC NOAA

HANCOCK HOUGHTON CTY. MEMO, MI, United States (KCMX) 47-10N 088-29W 326M
Mar 31, 2020 - 05:53 PM EDT / 2020.03.31 2153 UTC
Wind: from the ESE (120 degrees) at 5 MPH (4 KT):0
Visibility: 9 mile(s):0
Sky conditions: overcast
Precipitation last hour: A trace
Temperature: 34.0 F (1.1 C)
Windchill: 30 F (-1 C):1
Dew Point: 28.0 F (-2.2 C)
Relative Humidity: 78%
Pressure (altimeter): 30.13 in. Hg (1020 hPa)
ob: KCMX 312153Z AUTO 12004KT 9SM OVC022 01/M02 A3013 RMK AO2 SNB36E46 SLP216 P0000 T00111022
cycle: 22

Station Type Date Time Source
KCMX TAF 2020/03/31 19:16 UTC NOAA

TAF
AMD KCMX 311914Z 3119/0118 06006KT P6SM BKN025
FM312300 06005KT P6SM OVC013
FM010500 VRB02KT P6SM OVC008
TEMPO 0110/0113 5SM BR OVC004
FM011600 09005KT P6SM BKN014

Example: see airport list